KMVL/MVL METAR and TAF weather

Enter ICAO airport designator
Station Type Date Time Source
KMVL METAR 2021/09/27 05:54 UTC NOAA

KMVL 270554Z AUTO 00000KT 10SM CLR 10/08 A2987 RMK AO2 SLP115 T01000083 10133 20094 51003


Station Type Date Time Source
KMVL Decoded METAR 2021/09/27 05:54 UTC NOAA

MORRISVILLE STOWE STATE AIRPORT , VT, United States (KMVL) 44-32N 72-37W 223M
Sep 27, 2021 - 01:54 AM EDT / 2021.09.27 0554 UTC
Wind: Calm:0
Visibility: 10 mile(s):0
Sky conditions: clear
Temperature: 50.0 F (10.0 C)
Dew Point: 46.9 F (8.3 C)
Relative Humidity: 89%
Pressure (altimeter): 29.87 in. Hg (1011 hPa)
Pressure tendency: 0.01 inches (0.3 hPa) higher than three hours ago
ob: KMVL 270554Z AUTO 00000KT 10SM CLR 10/08 A2987 RMK AO2 SLP115 T01000083 10133 20094 51003
cycle: 6

Station Type Date Time Source
KMVL TAF UTC NOAA

Error!

Example: see airport list